sensor_id;sensor_type;location;lat;lon;timestamp;temperature;humidity
11140;DHT22;5624;49.388;11.350;2023-04-01T00:00:56;6.70;99.30
11140;DHT22;5624;49.388;11.350;2023-04-01T00:03:23;6.70;99.00
11140;DHT22;5624;49.388;11.350;2023-04-01T00:05:49;6.70;99.00
11140;DHT22;5624;49.388;11.350;2023-04-01T00:08:15;6.70;99.10
11140;DHT22;5624;49.388;11.350;2023-04-01T00:10:41;6.70;98.80
11140;DHT22;5624;49.388;11.350;2023-04-01T00:13:07;6.80;98.60
11140;DHT22;5624;49.388;11.350;2023-04-01T00:15:39;6.80;98.60
11140;DHT22;5624;49.388;11.350;2023-04-01T00:18:05;6.80;98.70
11140;DHT22;5624;49.388;11.350;2023-04-01T00:20:30;6.80;98.30
11140;DHT22;5624;49.388;11.350;2023-04-01T00:22:56;6.80;98.20
11140;DHT22;5624;49.388;11.350;2023-04-01T00:25:22;6.80;98.20
11140;DHT22;5624;49.388;11.350;2023-04-01T00:27:48;6.80;97.90
11140;DHT22;5624;49.388;11.350;2023-04-01T00:30:14;6.80;97.80
11140;DHT22;5624;49.388;11.350;2023-04-01T00:32:40;6.80;97.60
11140;DHT22;5624;49.388;11.350;2023-04-01T00:35:06;6.80;97.90
11140;DHT22;5624;49.388;11.350;2023-04-01T00:37:35;6.80;98.00
11140;DHT22;5624;49.388;11.350;2023-04-01T00:40:03;6.80;97.50
11140;DHT22;5624;49.388;11.350;2023-04-01T00:42:29;6.90;97.40
11140;DHT22;5624;49.388;11.350;2023-04-01T00:44:55;6.90;96.70
11140;DHT22;5624;49.388;11.350;2023-04-01T00:47:22;6.90;96.90
11140;DHT22;5624;49.388;11.350;2023-04-01T00:49:51;6.90;96.70
11140;DHT22;5624;49.388;11.350;2023-04-01T00:52:21;6.90;96.50
11140;DHT22;5624;49.388;11.350;2023-04-01T00:54:49;6.90;96.40
11140;DHT22;5624;49.388;11.350;2023-04-01T00:57:21;7.00;96.40
11140;DHT22;5624;49.388;11.350;2023-04-01T00:59:50;6.90;96.00
11140;DHT22;5624;49.388;11.350;2023-04-01T01:02:19;7.00;96.20
11140;DHT22;5624;49.388;11.350;2023-04-01T01:04:45;7.00;96.20
11140;DHT22;5624;49.388;11.350;2023-04-01T01:10:22;7.00;95.20
11140;DHT22;5624;49.388;11.350;2023-04-01T01:15:21;7.00;95.50
11140;DHT22;5624;49.388;11.350;2023-04-01T01:32:12;7.00;94.40
11140;DHT22;5624;49.388;11.350;2023-04-01T01:35:33;7.00;94.40
11140;DHT22;5624;49.388;11.350;2023-04-01T01:37:40;6.90;95.00
11140;DHT22;5624;49.388;11.350;2023-04-01T01:40:10;6.90;95.40
11140;DHT22;5624;49.388;11.350;2023-04-01T01:42:43;7.00;94.40
11140;DHT22;5624;49.388;11.350;2023-04-01T01:45:12;7.00;93.90
11140;DHT22;5624;49.388;11.350;2023-04-01T01:47:40;7.00;93.90
11140;DHT22;5624;49.388;11.350;2023-04-01T01:50:07;7.00;93.70
11140;DHT22;5624;49.388;11.350;2023-04-01T01:52:33;7.00;93.60
11140;DHT22;5624;49.388;11.350;2023-04-01T01:54:58;7.00;93.50
11140;DHT22;5624;49.388;11.350;2023-04-01T01:57:31;7.10;93.60
11140;DHT22;5624;49.388;11.350;2023-04-01T02:00:08;7.10;93.40
11140;DHT22;5624;49.388;11.350;2023-04-01T02:02:43;7.10;92.70
11140;DHT22;5624;49.388;11.350;2023-04-01T02:05:11;7.10;93.10
11140;DHT22;5624;49.388;11.350;2023-04-01T02:07:44;7.10;93.20
11140;DHT22;5624;49.388;11.350;2023-04-01T02:10:12;7.00;93.10
11140;DHT22;5624;49.388;11.350;2023-04-01T02:12:38;7.10;92.90
11140;DHT22;5624;49.388;11.350;2023-04-01T02:15:10;7.10;92.30
11140;DHT22;5624;49.388;11.350;2023-04-01T02:17:41;7.10;92.20
11140;DHT22;5624;49.388;11.350;2023-04-01T02:20:15;7.10;92.20
11140;DHT22;5624;49.388;11.350;2023-04-01T02:22:46;7.10;92.10
11140;DHT22;5624;49.388;11.350;2023-04-01T02:25:16;7.10;92.00
11140;DHT22;5624;49.388;11.350;2023-04-01T02:27:43;7.10;91.20
11140;DHT22;5624;49.388;11.350;2023-04-01T02:30:11;7.20;91.00
11140;DHT22;5624;49.388;11.350;2023-04-01T02:32:38;7.20;90.40
11140;DHT22;5624;49.388;11.350;2023-04-01T02:35:10;7.10;90.60
11140;DHT22;5624;49.388;11.350;2023-04-01T02:37:37;7.10;91.10
11140;DHT22;5624;49.388;11.350;2023-04-01T02:40:05;7.20;91.00
11140;DHT22;5624;49.388;11.350;2023-04-01T02:42:35;7.20;90.30
11140;DHT22;5624;49.388;11.350;2023-04-01T02:45:01;7.20;90.00
11140;DHT22;5624;49.388;11.350;2023-04-01T02:47:26;7.20;89.70
11140;DHT22;5624;49.388;11.350;2023-04-01T02:49:52;7.20;89.30
11140;DHT22;5624;49.388;11.350;2023-04-01T02:52:27;7.30;89.10
11140;DHT22;5624;49.388;11.350;2023-04-01T02:54:53;7.20;89.00
11140;DHT22;5624;49.388;11.350;2023-04-01T02:57:19;7.20;88.70
11140;DHT22;5624;49.388;11.350;2023-04-01T02:59:45;7.20;89.00
11140;DHT22;5624;49.388;11.350;2023-04-01T03:02:11;7.10;89.40
11140;DHT22;5624;49.388;11.350;2023-04-01T03:04:36;7.10;89.60
11140;DHT22;5624;49.388;11.350;2023-04-01T03:07:02;7.10;89.50
11140;DHT22;5624;49.388;11.350;2023-04-01T03:09:28;7.20;89.60
11140;DHT22;5624;49.388;11.350;2023-04-01T03:11:54;7.10;89.80
11140;DHT22;5624;49.388;11.350;2023-04-01T03:14:20;7.10;89.70
11140;DHT22;5624;49.388;11.350;2023-04-01T03:16:45;7.20;89.40
11140;DHT22;5624;49.388;11.350;2023-04-01T03:19:11;7.20;88.90
11140;DHT22;5624;49.388;11.350;2023-04-01T03:21:37;7.20;88.90
11140;DHT22;5624;49.388;11.350;2023-04-01T03:24:02;7.20;88.40
11140;DHT22;5624;49.388;11.350;2023-04-01T03:26:28;7.30;88.30
11140;DHT22;5624;49.388;11.350;2023-04-01T03:28:54;7.30;88.20
11140;DHT22;5624;49.388;11.350;2023-04-01T03:31:20;7.40;88.40
11140;DHT22;5624;49.388;11.350;2023-04-01T03:33:46;7.30;88.40
11140;DHT22;5624;49.388;11.350;2023-04-01T03:36:12;7.30;88.60
11140;DHT22;5624;49.388;11.350;2023-04-01T03:38:39;7.30;88.70
11140;DHT22;5624;49.388;11.350;2023-04-01T03:41:05;7.30;88.00
11140;DHT22;5624;49.388;11.350;2023-04-01T03:43:31;7.30;88.40
11140;DHT22;5624;49.388;11.350;2023-04-01T03:45:57;7.30;88.00
11140;DHT22;5624;49.388;11.350;2023-04-01T03:48:23;7.30;88.20
11140;DHT22;5624;49.388;11.350;2023-04-01T03:50:49;7.30;88.40
11140;DHT22;5624;49.388;11.350;2023-04-01T03:53:15;7.20;88.50
11140;DHT22;5624;49.388;11.350;2023-04-01T03:55:41;7.20;88.40
11140;DHT22;5624;49.388;11.350;2023-04-01T03:58:07;7.20;88.60
11140;DHT22;5624;49.388;11.350;2023-04-01T04:00:33;7.30;88.30
11140;DHT22;5624;49.388;11.350;2023-04-01T04:02:59;7.20;88.70
11140;DHT22;5624;49.388;11.350;2023-04-01T04:05:25;7.20;88.20
11140;DHT22;5624;49.388;11.350;2023-04-01T04:07:52;7.20;87.90
11140;DHT22;5624;49.388;11.350;2023-04-01T04:10:18;7.30;87.60
11140;DHT22;5624;49.388;11.350;2023-04-01T04:12:44;7.30;87.70
11140;DHT22;5624;49.388;11.350;2023-04-01T04:15:10;7.30;87.70
11140;DHT22;5624;49.388;11.350;2023-04-01T04:17:36;7.30;86.90
11140;DHT22;5624;49.388;11.350;2023-04-01T04:20:02;7.30;86.80
11140;DHT22;5624;49.388;11.350;2023-04-01T04:22:27;7.30;87.00
11140;DHT22;5624;49.388;11.350;2023-04-01T04:24:53;7.30;87.10
11140;DHT22;5624;49.388;11.350;2023-04-01T04:27:19;7.30;86.80
11140;DHT22;5624;49.388;11.350;2023-04-01T04:29:44;7.20;87.40
11140;DHT22;5624;49.388;11.350;2023-04-01T04:32:10;7.20;87.50
11140;DHT22;5624;49.388;11.350;2023-04-01T04:34:36;7.10;88.10
11140;DHT22;5624;49.388;11.350;2023-04-01T04:37:02;7.10;88.30
11140;DHT22;5624;49.388;11.350;2023-04-01T04:39:27;7.10;88.10
11140;DHT22;5624;49.388;11.350;2023-04-01T04:41:53;7.20;88.30
11140;DHT22;5624;49.388;11.350;2023-04-01T04:44:18;7.10;88.40
11140;DHT22;5624;49.388;11.350;2023-04-01T04:46:44;7.10;89.00
11140;DHT22;5624;49.388;11.350;2023-04-01T04:49:09;7.10;89.00
11140;DHT22;5624;49.388;11.350;2023-04-01T04:51:35;7.10;88.90
11140;DHT22;5624;49.388;11.350;2023-04-01T04:54:02;7.10;88.60
11140;DHT22;5624;49.388;11.350;2023-04-01T04:56:28;7.10;88.90
11140;DHT22;5624;49.388;11.350;2023-04-01T04:58:54;7.10;88.60
11140;DHT22;5624;49.388;11.350;2023-04-01T05:01:20;7.10;88.60
11140;DHT22;5624;49.388;11.350;2023-04-01T05:03:45;7.10;88.60
11140;DHT22;5624;49.388;11.350;2023-04-01T05:06:13;7.00;89.40
11140;DHT22;5624;49.388;11.350;2023-04-01T05:08:40;7.00;89.50
11140;DHT22;5624;49.388;11.350;2023-04-01T05:11:17;7.00;89.60
11140;DHT22;5624;49.388;11.350;2023-04-01T05:13:43;7.00;89.60
11140;DHT22;5624;49.388;11.350;2023-04-01T05:16:10;7.00;90.10
11140;DHT22;5624;49.388;11.350;2023-04-01T05:18:36;7.00;89.80
11140;DHT22;5624;49.388;11.350;2023-04-01T05:21:02;7.00;90.00
11140;DHT22;5624;49.388;11.350;2023-04-01T05:23:27;7.00;89.40
11140;DHT22;5624;49.388;11.350;2023-04-01T05:25:53;7.00;89.40
11140;DHT22;5624;49.388;11.350;2023-04-01T05:28:19;7.00;89.20
11140;DHT22;5624;49.388;11.350;2023-04-01T05:30:45;6.90;89.70
11140;DHT22;5624;49.388;11.350;2023-04-01T05:33:12;7.00;89.70
11140;DHT22;5624;49.388;11.350;2023-04-01T05:35:38;7.00;89.60
11140;DHT22;5624;49.388;11.350;2023-04-01T05:38:05;7.00;89.40
11140;DHT22;5624;49.388;11.350;2023-04-01T05:40:31;7.10;88.60
11140;DHT22;5624;49.388;11.350;2023-04-01T05:42:57;7.10;88.60
11140;DHT22;5624;49.388;11.350;2023-04-01T05:45:23;7.20;88.60
11140;DHT22;5624;49.388;11.350;2023-04-01T05:47:49;7.20;88.30
11140;DHT22;5624;49.388;11.350;2023-04-01T05:50:15;7.10;88.30
11140;DHT22;5624;49.388;11.350;2023-04-01T05:52:40;7.20;88.60
11140;DHT22;5624;49.388;11.350;2023-04-01T05:55:06;7.10;88.10
11140;DHT22;5624;49.388;11.350;2023-04-01T05:57:32;7.20;87.80
11140;DHT22;5624;49.388;11.350;2023-04-01T05:59:58;7.20;87.90
11140;DHT22;5624;49.388;11.350;2023-04-01T06:02:23;7.20;87.10
11140;DHT22;5624;49.388;11.350;2023-04-01T06:04:49;7.20;86.40
11140;DHT22;5624;49.388;11.350;2023-04-01T06:07:19;7.30;86.30
11140;DHT22;5624;49.388;11.350;2023-04-01T06:09:45;7.40;86.00
11140;DHT22;5624;49.388;11.350;2023-04-01T06:12:32;7.40;85.30
11140;DHT22;5624;49.388;11.350;2023-04-01T06:15:20;7.40;85.40
11140;DHT22;5624;49.388;11.350;2023-04-01T06:26:19;7.50;84.10
11140;DHT22;5624;49.388;11.350;2023-04-01T06:31:37;7.70;83.70
11140;DHT22;5624;49.388;11.350;2023-04-01T06:40:09;7.90;82.50
11140;DHT22;5624;49.388;11.350;2023-04-01T06:45:50;8.00;82.30
11140;DHT22;5624;49.388;11.350;2023-04-01T06:54:18;8.20;80.10
11140;DHT22;5624;49.388;11.350;2023-04-01T06:56:51;8.20;80.10
11140;DHT22;5624;49.388;11.350;2023-04-01T06:59:25;8.20;79.10
11140;DHT22;5624;49.388;11.350;2023-04-01T07:01:57;8.20;78.70
11140;DHT22;5624;49.388;11.350;2023-04-01T07:04:30;8.30;78.60
11140;DHT22;5624;49.388;11.350;2023-04-01T07:06:59;8.30;78.20
11140;DHT22;5624;49.388;11.350;2023-04-01T07:09:35;8.30;78.10
11140;DHT22;5624;49.388;11.350;2023-04-01T07:12:10;8.30;77.40
11140;DHT22;5624;49.388;11.350;2023-04-01T07:14:40;8.30;77.80
11140;DHT22;5624;49.388;11.350;2023-04-01T07:17:21;8.40;77.50
11140;DHT22;5624;49.388;11.350;2023-04-01T07:20:02;8.40;77.30
11140;DHT22;5624;49.388;11.350;2023-04-01T07:22:46;8.60;76.60
11140;DHT22;5624;49.388;11.350;2023-04-01T07:25:23;8.70;77.40
11140;DHT22;5624;49.388;11.350;2023-04-01T07:27:53;8.80;75.90
11140;DHT22;5624;49.388;11.350;2023-04-01T07:30:22;8.80;76.10
11140;DHT22;5624;49.388;11.350;2023-04-01T07:33:04;8.90;75.80
11140;DHT22;5624;49.388;11.350;2023-04-01T07:35:40;9.10;75.40
11140;DHT22;5624;49.388;11.350;2023-04-01T07:40:55;8.90;75.20
11140;DHT22;5624;49.388;11.350;2023-04-01T07:43:36;8.90;74.90
11140;DHT22;5624;49.388;11.350;2023-04-01T07:49:14;9.20;74.10
11140;DHT22;5624;49.388;11.350;2023-04-01T07:51:55;9.10;73.80
11140;DHT22;5624;49.388;11.350;2023-04-01T07:57:20;9.20;74.20
11140;DHT22;5624;49.388;11.350;2023-04-01T08:05:33;9.30;73.80
11140;DHT22;5624;49.388;11.350;2023-04-01T08:08:24;9.30;74.30
11140;DHT22;5624;49.388;11.350;2023-04-01T08:10:57;9.20;74.30
11140;DHT22;5624;49.388;11.350;2023-04-01T08:19:02;9.00;75.70
11140;DHT22;5624;49.388;11.350;2023-04-01T08:21:41;8.90;76.30
11140;DHT22;5624;49.388;11.350;2023-04-01T08:24:27;8.90;76.40
11140;DHT22;5624;49.388;11.350;2023-04-01T08:26:57;9.00;75.60
11140;DHT22;5624;49.388;11.350;2023-04-01T08:29:48;9.10;75.40
11140;DHT22;5624;49.388;11.350;2023-04-01T08:32:42;9.20;76.00
11140;DHT22;5624;49.388;11.350;2023-04-01T08:35:17;9.30;74.70
11140;DHT22;5624;49.388;11.350;2023-04-01T08:37:45;9.30;74.00
11140;DHT22;5624;49.388;11.350;2023-04-01T08:40:32;9.10;73.10
11140;DHT22;5624;49.388;11.350;2023-04-01T08:43:16;9.10;74.60
11140;DHT22;5624;49.388;11.350;2023-04-01T08:45:59;9.00;74.70
11140;DHT22;5624;49.388;11.350;2023-04-01T08:54:01;9.10;74.70
11140;DHT22;5624;49.388;11.350;2023-04-01T08:56:41;9.10;74.60
11140;DHT22;5624;49.388;11.350;2023-04-01T08:59:17;9.10;75.10
11140;DHT22;5624;49.388;11.350;2023-04-01T09:13:07;9.10;75.70
11140;DHT22;5624;49.388;11.350;2023-04-01T09:25:36;9.40;79.30
11140;DHT22;5624;49.388;11.350;2023-04-01T09:30:44;9.20;79.10
11140;DHT22;5624;49.388;11.350;2023-04-01T09:36:32;9.20;78.40
11140;DHT22;5624;49.388;11.350;2023-04-01T09:39:18;9.10;78.90
11140;DHT22;5624;49.388;11.350;2023-04-01T09:45:09;9.00;79.00
11140;DHT22;5624;49.388;11.350;2023-04-01T09:54:00;8.90;81.40
11140;DHT22;5624;49.388;11.350;2023-04-01T10:16:49;9.30;83.40
11140;DHT22;5624;49.388;11.350;2023-04-01T10:22:35;9.40;84.00
11140;DHT22;5624;49.388;11.350;2023-04-01T10:28:03;9.60;83.60
11140;DHT22;5624;49.388;11.350;2023-04-01T10:44:29;9.00;86.20
11140;DHT22;5624;49.388;11.350;2023-04-01T10:47:25;9.00;87.20
11140;DHT22;5624;49.388;11.350;2023-04-01T11:01:36;10.00;86.20
11140;DHT22;5624;49.388;11.350;2023-04-01T11:26:36;9.30;88.80
11140;DHT22;5624;49.388;11.350;2023-04-01T11:29:37;9.30;88.70
11140;DHT22;5624;49.388;11.350;2023-04-01T11:32:34;9.20;89.20
11140;DHT22;5624;49.388;11.350;2023-04-01T11:46:04;8.60;93.70
11140;DHT22;5624;49.388;11.350;2023-04-01T11:48:57;8.60;94.10
11140;DHT22;5624;49.388;11.350;2023-04-01T12:19:49;9.10;92.50
11140;DHT22;5624;49.388;11.350;2023-04-01T12:22:47;9.00;91.60
11140;DHT22;5624;49.388;11.350;2023-04-01T12:35:55;8.50;94.30
11140;DHT22;5624;49.388;11.350;2023-04-01T12:38:59;8.60;94.70
11140;DHT22;5624;49.388;11.350;2023-04-01T12:44:46;8.90;93.70
11140;DHT22;5624;49.388;11.350;2023-04-01T12:50:29;9.00;93.30
11140;DHT22;5624;49.388;11.350;2023-04-01T12:55:41;9.00;93.10
11140;DHT22;5624;49.388;11.350;2023-04-01T13:06:36;8.70;94.10
11140;DHT22;5624;49.388;11.350;2023-04-01T13:09:19;8.60;94.00
11140;DHT22;5624;49.388;11.350;2023-04-01T13:28:47;8.70;95.30
11140;DHT22;5624;49.388;11.350;2023-04-01T13:31:36;8.80;94.90
11140;DHT22;5624;49.388;11.350;2023-04-01T13:40:02;8.70;93.50
11140;DHT22;5624;49.388;11.350;2023-04-01T13:42:37;8.70;93.60
11140;DHT22;5624;49.388;11.350;2023-04-01T14:04:47;8.80;95.10
11140;DHT22;5624;49.388;11.350;2023-04-01T14:07:50;8.80;94.90
11140;DHT22;5624;49.388;11.350;2023-04-01T14:10:39;8.70;94.60
11140;DHT22;5624;49.388;11.350;2023-04-01T14:13:17;8.80;95.40
11140;DHT22;5624;49.388;11.350;2023-04-01T14:18:52;9.00;93.20
11140;DHT22;5624;49.388;11.350;2023-04-01T14:21:23;9.00;92.30
11140;DHT22;5624;49.388;11.350;2023-04-01T14:32:25;8.80;94.30
11140;DHT22;5624;49.388;11.350;2023-04-01T14:40:27;8.80;95.10
11140;DHT22;5624;49.388;11.350;2023-04-01T14:45:59;8.80;95.20
11140;DHT22;5624;49.388;11.350;2023-04-01T14:48:50;8.70;94.90
11140;DHT22;5624;49.388;11.350;2023-04-01T14:51:33;8.60;95.20
11140;DHT22;5624;49.388;11.350;2023-04-01T15:04:53;8.40;96.20
11140;DHT22;5624;49.388;11.350;2023-04-01T15:13:13;8.40;95.90
11140;DHT22;5624;49.388;11.350;2023-04-01T15:21:31;8.30;96.10
11140;DHT22;5624;49.388;11.350;2023-04-01T15:33:02;8.20;96.70
11140;DHT22;5624;49.388;11.350;2023-04-01T15:43:44;8.20;97.00
11140;DHT22;5624;49.388;11.350;2023-04-01T15:54:26;8.00;98.20
11140;DHT22;5624;49.388;11.350;2023-04-01T15:59:54;8.10;97.60
11140;DHT22;5624;49.388;11.350;2023-04-01T16:05:42;8.10;98.00
11140;DHT22;5624;49.388;11.350;2023-04-01T16:32:37;7.80;97.20
11140;DHT22;5624;49.388;11.350;2023-04-01T16:38:18;7.80;97.50
11140;DHT22;5624;49.388;11.350;2023-04-01T16:43:25;7.80;97.10
11140;DHT22;5624;49.388;11.350;2023-04-01T16:48:59;7.80;96.80
11140;DHT22;5624;49.388;11.350;2023-04-01T16:54:28;7.70;96.80
11140;DHT22;5624;49.388;11.350;2023-04-01T16:57:03;7.70;96.50
11140;DHT22;5624;49.388;11.350;2023-04-01T17:02:43;7.70;96.70
11140;DHT22;5624;49.388;11.350;2023-04-01T17:05:13;7.70;96.30
11140;DHT22;5624;49.388;11.350;2023-04-01T17:07:47;7.70;96.40
11140;DHT22;5624;49.388;11.350;2023-04-01T17:24:29;7.60;97.20
11140;DHT22;5624;49.388;11.350;2023-04-01T17:27:21;7.60;97.00
11140;DHT22;5624;49.388;11.350;2023-04-01T17:38:39;7.40;97.50
11140;DHT22;5624;49.388;11.350;2023-04-01T17:41:16;7.50;97.60
11140;DHT22;5624;49.388;11.350;2023-04-01T17:47:05;7.40;97.30
11140;DHT22;5624;49.388;11.350;2023-04-01T17:49:35;7.40;97.30
11140;DHT22;5624;49.388;11.350;2023-04-01T18:10:48;7.40;97.00
11140;DHT22;5624;49.388;11.350;2023-04-01T18:22:08;7.30;96.60
11140;DHT22;5624;49.388;11.350;2023-04-01T18:24:45;7.30;96.70
11140;DHT22;5624;49.388;11.350;2023-04-01T18:27:22;7.30;96.80
11140;DHT22;5624;49.388;11.350;2023-04-01T18:29:52;7.30;96.10
11140;DHT22;5624;49.388;11.350;2023-04-01T18:32:41;7.30;95.90
11140;DHT22;5624;49.388;11.350;2023-04-01T18:40:43;7.30;96.30
11140;DHT22;5624;49.388;11.350;2023-04-01T18:46:16;7.30;96.30
11140;DHT22;5624;49.388;11.350;2023-04-01T18:51:22;7.30;96.20
11140;DHT22;5624;49.388;11.350;2023-04-01T18:54:05;7.30;95.80
11140;DHT22;5624;49.388;11.350;2023-04-01T18:56:44;7.40;95.90
11140;DHT22;5624;49.388;11.350;2023-04-01T18:59:37;7.40;95.80
11140;DHT22;5624;49.388;11.350;2023-04-01T19:02:16;7.40;96.10
11140;DHT22;5624;49.388;11.350;2023-04-01T19:04:50;7.40;96.20
11140;DHT22;5624;49.388;11.350;2023-04-01T19:10:06;7.40;96.10
11140;DHT22;5624;49.388;11.350;2023-04-01T19:20:47;7.40;96.30
11140;DHT22;5624;49.388;11.350;2023-04-01T19:32:40;7.40;96.40
11140;DHT22;5624;49.388;11.350;2023-04-01T19:37:51;7.40;96.30
11140;DHT22;5624;49.388;11.350;2023-04-01T19:40:43;7.30;96.50
11140;DHT22;5624;49.388;11.350;2023-04-01T19:43:21;7.30;96.50
11140;DHT22;5624;49.388;11.350;2023-04-01T19:48:58;7.30;96.30
11140;DHT22;5624;49.388;11.350;2023-04-01T19:56:49;7.30;96.40
11140;DHT22;5624;49.388;11.350;2023-04-01T19:59:39;7.30;96.40
11140;DHT22;5624;49.388;11.350;2023-04-01T20:04:51;7.30;97.00
11140;DHT22;5624;49.388;11.350;2023-04-01T20:07:40;7.40;96.80
11140;DHT22;5624;49.388;11.350;2023-04-01T20:10:20;7.40;96.80
11140;DHT22;5624;49.388;11.350;2023-04-01T20:12:50;7.40;96.70
11140;DHT22;5624;49.388;11.350;2023-04-01T20:18:01;7.40;97.40
11140;DHT22;5624;49.388;11.350;2023-04-01T20:20:29;7.30;97.00
11140;DHT22;5624;49.388;11.350;2023-04-01T20:28:21;7.30;98.00
11140;DHT22;5624;49.388;11.350;2023-04-01T20:44:46;7.20;99.60
11140;DHT22;5624;49.388;11.350;2023-04-01T20:50:19;7.10;99.70
11140;DHT22;5624;49.388;11.350;2023-04-01T20:53:15;7.10;99.80
11140;DHT22;5624;49.388;11.350;2023-04-01T21:12:30;7.10;99.40
11140;DHT22;5624;49.388;11.350;2023-04-01T21:15:33;7.10;99.60
11140;DHT22;5624;49.388;11.350;2023-04-01T21:18:11;7.10;99.20
11140;DHT22;5624;49.388;11.350;2023-04-01T21:29:53;7.00;99.20
11140;DHT22;5624;49.388;11.350;2023-04-01T21:32:39;7.00;99.70
11140;DHT22;5624;49.388;11.350;2023-04-01T21:35:52;7.00;99.40
11140;DHT22;5624;49.388;11.350;2023-04-01T21:38:34;7.10;98.90
11140;DHT22;5624;49.388;11.350;2023-04-01T21:41:11;7.10;98.60
11140;DHT22;5624;49.388;11.350;2023-04-01T21:46:55;7.10;98.20
11140;DHT22;5624;49.388;11.350;2023-04-01T21:52:46;7.10;98.00
11140;DHT22;5624;49.388;11.350;2023-04-01T22:01:27;7.10;97.30
11140;DHT22;5624;49.388;11.350;2023-04-01T22:03:53;7.10;97.90
11140;DHT22;5624;49.388;11.350;2023-04-01T22:06:49;7.10;98.00
11140;DHT22;5624;49.388;11.350;2023-04-01T22:09:35;7.10;97.10
11140;DHT22;5624;49.388;11.350;2023-04-01T22:12:10;7.10;96.80
11140;DHT22;5624;49.388;11.350;2023-04-01T22:14:53;7.20;96.60
11140;DHT22;5624;49.388;11.350;2023-04-01T22:17:35;7.10;96.60
11140;DHT22;5624;49.388;11.350;2023-04-01T22:25:45;7.10;95.90
11140;DHT22;5624;49.388;11.350;2023-04-01T22:28:22;7.10;95.80
11140;DHT22;5624;49.388;11.350;2023-04-01T22:31:03;7.20;95.70
11140;DHT22;5624;49.388;11.350;2023-04-01T22:34:00;7.10;95.50
11140;DHT22;5624;49.388;11.350;2023-04-01T22:36:39;7.10;95.10
11140;DHT22;5624;49.388;11.350;2023-04-01T22:39:50;7.10;95.50
11140;DHT22;5624;49.388;11.350;2023-04-01T22:48:13;7.10;95.50
11140;DHT22;5624;49.388;11.350;2023-04-01T22:56:01;7.00;96.40
11140;DHT22;5624;49.388;11.350;2023-04-01T22:58:38;7.00;96.60
11140;DHT22;5624;49.388;11.350;2023-04-01T23:01:10;7.00;96.40
11140;DHT22;5624;49.388;11.350;2023-04-01T23:03:41;7.00;97.10
11140;DHT22;5624;49.388;11.350;2023-04-01T23:06:15;7.00;96.90
11140;DHT22;5624;49.388;11.350;2023-04-01T23:09:17;6.90;97.00
11140;DHT22;5624;49.388;11.350;2023-04-01T23:19:28;6.90;97.90
11140;DHT22;5624;49.388;11.350;2023-04-01T23:24:38;6.90;98.30
11140;DHT22;5624;49.388;11.350;2023-04-01T23:27:32;6.80;98.40
11140;DHT22;5624;49.388;11.350;2023-04-01T23:30:00;6.80;99.10
11140;DHT22;5624;49.388;11.350;2023-04-01T23:32:27;6.80;99.20
11140;DHT22;5624;49.388;11.350;2023-04-01T23:34:58;6.80;99.30
11140;DHT22;5624;49.388;11.350;2023-04-01T23:37:25;6.80;99.30
11140;DHT22;5624;49.388;11.350;2023-04-01T23:39:56;6.80;99.40
11140;DHT22;5624;49.388;11.350;2023-04-01T23:42:28;6.80;99.10
11140;DHT22;5624;49.388;11.350;2023-04-01T23:44:57;6.80;99.40
11140;DHT22;5624;49.388;11.350;2023-04-01T23:47:30;6.90;99.40
11140;DHT22;5624;49.388;11.350;2023-04-01T23:50:23;6.80;99.40
11140;DHT22;5624;49.388;11.350;2023-04-01T23:53:18;6.80;98.90
11140;DHT22;5624;49.388;11.350;2023-04-01T23:55:46;6.80;99.20
